Posadas, Argentina
Current Conditions -  °F | °C
As of 3:00 PM on Tuesday 27 Jan 2015 (Local Time) from SARP Reporting Station
Scattered Clouds Scattered Clouds  
Wind Chill: 88°   Ceiling: Unl
Heat Index: 94°   Visibility: 6mi
Dew Point: 72°   Wind: 10mph
Humidity: 58%   Direction: 290°WNW
Pressure: 29.83"   Gusts: NA
Location:  27.4°S, 55.91°W
Report Text: SARP 271800Z 29009KT 9999 SCT035TCU SCT200 31/22 Q1010
Loading
Personal Weather Stations






























Interactive Weather Map New forecast layout! Learn more

10-Day Weather Forecast

Advertisements
Track Severe Weather on mobile